createdAt,value
2023-01-09T00:00:38.038Z,8.44
2023-01-09T00:03:05.612Z,8.39
2023-01-09T00:05:33.232Z,8.36
2023-01-09T00:08:00.843Z,8.40
2023-01-09T00:10:28.553Z,8.37
2023-01-09T00:12:57.550Z,8.42
2023-01-09T00:15:25.146Z,8.42
2023-01-09T00:17:52.735Z,8.42
2023-01-09T00:20:20.421Z,8.39
2023-01-09T00:22:47.984Z,8.40
2023-01-09T00:25:15.701Z,8.48
2023-01-09T00:27:43.267Z,8.51
2023-01-09T00:30:13.314Z,8.49
2023-01-09T00:32:41.502Z,8.51
2023-01-09T00:35:12.836Z,8.56
2023-01-09T00:37:40.481Z,8.62
2023-01-09T00:40:08.723Z,8.57
2023-01-09T00:42:36.766Z,8.66
2023-01-09T00:45:08.938Z,8.71
2023-01-09T00:47:42.769Z,8.79
2023-01-09T00:50:14.808Z,8.77
2023-01-09T00:52:43.471Z,8.80
2023-01-09T00:55:11.550Z,8.83
2023-01-09T00:57:39.299Z,8.85
2023-01-09T01:00:09.337Z,8.84
2023-01-09T01:02:38.392Z,8.97
2023-01-09T01:05:24.482Z,8.90
2023-01-09T01:07:52.115Z,9.00
2023-01-09T01:10:21.436Z,8.96
2023-01-09T01:12:49.839Z,9.00
2023-01-09T01:15:19.710Z,9.01
2023-01-09T01:17:49.125Z,8.99
2023-01-09T01:20:19.861Z,9.00
2023-01-09T01:22:47.943Z,9.04
2023-01-09T01:25:17.429Z,8.98
2023-01-09T01:27:45.587Z,9.01
2023-01-09T01:30:15.957Z,8.99
2023-01-09T01:32:44.223Z,9.00
2023-01-09T01:35:13.232Z,9.05
2023-01-09T01:37:41.087Z,8.96
2023-01-09T01:40:11.798Z,8.99
2023-01-09T01:42:46.590Z,9.05
2023-01-09T01:45:16.635Z,9.03
2023-01-09T01:47:51.232Z,8.96
2023-01-09T01:50:28.612Z,9.04
2023-01-09T01:53:06.566Z,8.95
2023-01-09T01:55:36.078Z,8.88
2023-01-09T01:58:08.021Z,8.87
2023-01-09T02:00:39.827Z,8.83
2023-01-09T02:03:08.511Z,8.79
2023-01-09T02:05:39.863Z,8.89
2023-01-09T02:08:08.378Z,8.84
2023-01-09T02:10:35.947Z,8.88
2023-01-09T02:13:04.449Z,8.69
2023-01-09T02:15:37.874Z,8.68
2023-01-09T02:18:28.303Z,8.75
2023-01-09T02:21:05.253Z,9.08
2023-01-09T02:24:03.425Z,9.18
2023-01-09T02:27:04.862Z,9.15
2023-01-09T02:30:10.991Z,8.99
2023-01-09T02:32:49.807Z,9.01
2023-01-09T02:35:36.714Z,8.74
2023-01-09T02:38:15.046Z,8.60
2023-01-09T02:40:47.948Z,8.49
2023-01-09T02:43:16.213Z,8.49
2023-01-09T02:45:43.839Z,8.36
2023-01-09T02:48:13.224Z,8.34
2023-01-09T02:50:44.572Z,8.26
2023-01-09T02:53:53.959Z,8.16
2023-01-09T02:56:36.596Z,8.19
2023-01-09T02:59:25.719Z,8.16
2023-01-09T03:02:15.216Z,8.12
2023-01-09T03:04:54.630Z,8.18
2023-01-09T03:07:26.512Z,8.10
2023-01-09T03:10:01.207Z,8.25
2023-01-09T03:12:33.019Z,8.26
2023-01-09T03:15:03.646Z,8.22
2023-01-09T03:17:38.087Z,8.26
2023-01-09T03:20:11.230Z,8.22
2023-01-09T03:22:40.872Z,8.26
2023-01-09T03:25:09.196Z,8.18
2023-01-09T03:27:36.891Z,8.17
2023-01-09T03:30:05.102Z,8.15
2023-01-09T03:32:32.685Z,8.16
2023-01-09T03:35:01.879Z,8.15
2023-01-09T03:37:30.781Z,8.06
2023-01-09T03:39:58.361Z,8.07
2023-01-09T03:42:25.951Z,8.00
2023-01-09T03:44:53.626Z,8.02
2023-01-09T03:47:21.246Z,7.98
2023-01-09T03:49:48.865Z,7.92
2023-01-09T03:52:16.524Z,7.92
2023-01-09T03:54:45.464Z,7.93
2023-01-09T03:57:13.073Z,7.89
2023-01-09T03:59:40.819Z,7.84
2023-01-09T04:02:08.628Z,7.77
2023-01-09T04:04:36.324Z,7.76
2023-01-09T04:07:03.860Z,7.75
2023-01-09T04:09:31.593Z,7.70
2023-01-09T04:12:00.561Z,7.78
2023-01-09T04:14:28.162Z,7.68
2023-01-09T04:16:55.760Z,7.72
2023-01-09T04:19:23.317Z,7.73
2023-01-09T04:21:50.874Z,7.72
2023-01-09T04:24:18.510Z,7.72
2023-01-09T04:26:46.124Z,7.75
2023-01-09T04:29:15.044Z,7.82
2023-01-09T04:31:42.678Z,7.82
2023-01-09T04:34:10.294Z,7.77
2023-01-09T04:36:38.749Z,7.68
2023-01-09T04:39:06.759Z,7.67
2023-01-09T04:41:52.471Z,7.63
2023-01-09T04:44:26.116Z,7.71
2023-01-09T04:46:54.978Z,7.65
2023-01-09T04:49:22.887Z,7.72
2023-01-09T04:51:50.962Z,7.60
2023-01-09T04:54:18.738Z,7.71
2023-01-09T04:56:46.433Z,7.72
2023-01-09T04:59:14.139Z,7.62
2023-01-09T05:01:43.136Z,7.60
2023-01-09T05:04:11.143Z,7.71
2023-01-09T05:06:38.817Z,7.68
2023-01-09T05:09:06.651Z,7.59
2023-01-09T05:11:34.299Z,7.51
2023-01-09T05:14:01.840Z,7.48
2023-01-09T05:16:30.813Z,7.43
2023-01-09T05:19:00.568Z,7.44
2023-01-09T05:21:28.850Z,7.40
2023-01-09T05:23:56.506Z,7.31
2023-01-09T05:26:24.917Z,7.26
2023-01-09T05:28:52.524Z,7.20
2023-01-09T05:31:22.277Z,7.20
2023-01-09T05:33:50.142Z,7.23
2023-01-09T05:36:19.003Z,7.18
2023-01-09T05:38:46.675Z,7.09
2023-01-09T05:41:14.217Z,7.15
2023-01-09T05:43:41.946Z,7.18
2023-01-09T05:46:09.769Z,7.22
2023-01-09T05:48:37.965Z,7.12
2023-01-09T05:51:05.715Z,7.18
2023-01-09T05:53:34.655Z,7.21
2023-01-09T05:56:02.218Z,7.19
2023-01-09T05:58:29.882Z,7.24
2023-01-09T06:00:57.525Z,7.18
2023-01-09T06:03:25.090Z,7.01
2023-01-09T06:05:52.751Z,7.08
2023-01-09T06:08:20.331Z,7.14
2023-01-09T06:10:49.217Z,7.12
2023-01-09T06:13:16.814Z,7.09
2023-01-09T06:15:44.422Z,7.15
2023-01-09T06:18:12.049Z,7.12
2023-01-09T06:20:39.673Z,7.08
2023-01-09T06:23:07.271Z,7.18
2023-01-09T06:25:35.079Z,7.21
2023-01-09T06:28:04.448Z,7.20
2023-01-09T06:30:32.024Z,7.18
2023-01-09T06:32:59.648Z,7.16
2023-01-09T06:35:27.335Z,7.21
2023-01-09T06:37:54.915Z,7.27
2023-01-09T06:40:22.476Z,7.26
2023-01-09T06:42:50.559Z,7.19
2023-01-09T06:45:19.620Z,7.17
2023-01-09T06:47:47.241Z,7.24
2023-01-09T06:50:14.903Z,7.25
2023-01-09T06:52:42.500Z,7.20
2023-01-09T06:55:10.581Z,7.31
2023-01-09T06:57:38.123Z,7.27
2023-01-09T07:00:06.662Z,7.24
2023-01-09T07:02:35.738Z,7.36
2023-01-09T07:05:07.506Z,7.31
2023-01-09T07:07:35.547Z,7.37
2023-01-09T07:10:03.260Z,7.29
2023-01-09T07:12:30.851Z,7.29
2023-01-09T07:14:59.029Z,7.45
2023-01-09T07:17:26.624Z,7.37
2023-01-09T07:19:55.669Z,7.38
2023-01-09T07:22:23.441Z,7.39
2023-01-09T07:24:51.028Z,7.43
2023-01-09T07:27:18.621Z,7.49
2023-01-09T07:29:46.184Z,7.35
2023-01-09T07:32:13.806Z,7.28
2023-01-09T07:34:41.456Z,7.48
2023-01-09T07:37:10.353Z,7.35
2023-01-09T07:39:37.900Z,7.16
2023-01-09T07:42:05.514Z,7.12
2023-01-09T07:44:34.377Z,7.12
2023-01-09T07:47:02.021Z,7.21
2023-01-09T07:49:29.634Z,7.13
2023-01-09T07:51:57.243Z,7.13
2023-01-09T07:54:26.217Z,7.07
2023-01-09T07:56:53.971Z,7.13
2023-01-09T07:59:21.784Z,7.13
2023-01-09T08:01:49.477Z,7.20
2023-01-09T08:04:17.256Z,7.24
2023-01-09T08:06:44.859Z,7.21
2023-01-09T08:09:13.820Z,7.23
2023-01-09T08:11:42.816Z,7.15
2023-01-09T08:14:10.531Z,7.30
2023-01-09T08:16:38.119Z,7.08
2023-01-09T08:19:06.445Z,7.28
2023-01-09T08:21:34.223Z,7.16
2023-01-09T08:24:01.871Z,7.20
2023-01-09T08:26:29.440Z,7.20
2023-01-09T08:28:58.402Z,7.17
2023-01-09T08:31:26.045Z,7.24
2023-01-09T08:33:53.784Z,7.13
2023-01-09T08:36:21.399Z,7.10
2023-01-09T08:38:48.984Z,7.03
2023-01-09T08:41:39.530Z,7.08
2023-01-09T08:44:26.357Z,7.26
2023-01-09T08:47:09.322Z,7.35
2023-01-09T08:49:38.578Z,7.37
2023-01-09T08:52:07.464Z,7.29
2023-01-09T08:54:36.825Z,7.23
2023-01-09T08:57:05.001Z,7.23
2023-01-09T08:59:34.328Z,7.21
2023-01-09T09:02:02.022Z,7.32
2023-01-09T09:04:29.747Z,7.26
2023-01-09T09:06:57.308Z,7.23
2023-01-09T09:09:25.680Z,7.13
2023-01-09T09:11:53.334Z,7.16
2023-01-09T09:14:38.399Z,7.12
2023-01-09T09:17:07.382Z,7.12
2023-01-09T09:19:35.146Z,7.17
2023-01-09T09:22:02.799Z,7.09
2023-01-09T09:24:30.410Z,7.15
2023-01-09T09:26:58.268Z,7.24
2023-01-09T09:29:25.930Z,7.29
2023-01-09T09:31:53.616Z,7.26
2023-01-09T09:34:23.291Z,7.37
2023-01-09T09:36:50.893Z,7.41
2023-01-09T09:39:18.683Z,7.42
2023-01-09T09:42:25.557Z,7.48
2023-01-09T09:45:11.325Z,7.47
2023-01-09T09:47:48.265Z,7.47
2023-01-09T09:50:45.750Z,7.57
2023-01-09T09:53:19.832Z,7.65
2023-01-09T09:55:50.780Z,7.62
2023-01-09T09:58:26.031Z,7.57
2023-01-09T10:00:54.524Z,7.59
2023-01-09T10:03:33.998Z,7.63
2023-01-09T10:06:08.578Z,7.57
2023-01-09T10:08:46.373Z,7.51
2023-01-09T10:11:18.853Z,7.62
2023-01-09T10:14:05.947Z,7.60
2023-01-09T10:16:56.183Z,7.62
2023-01-09T10:19:38.554Z,7.73
2023-01-09T10:22:18.467Z,7.66
2023-01-09T10:24:59.979Z,7.79
2023-01-09T10:27:40.871Z,7.71
2023-01-09T10:30:27.847Z,7.54
2023-01-09T10:33:07.703Z,7.62
2023-01-09T10:35:51.795Z,7.53
2023-01-09T10:38:26.372Z,7.58
2023-01-09T10:41:01.697Z,7.87
2023-01-09T10:43:35.582Z,7.58
2023-01-09T10:46:07.018Z,7.95
2023-01-09T10:48:36.730Z,8.16
2023-01-09T10:51:14.096Z,8.45
2023-01-09T10:53:46.479Z,8.51
2023-01-09T10:56:20.892Z,8.18
2023-01-09T10:58:49.404Z,8.00
2023-01-09T11:01:20.782Z,8.03
2023-01-09T11:03:48.393Z,7.78
2023-01-09T11:06:22.755Z,8.00
2023-01-09T11:08:56.452Z,7.73
2023-01-09T11:11:35.037Z,7.67
2023-01-09T11:14:08.251Z,7.91
2023-01-09T11:16:35.919Z,8.06
2023-01-09T11:19:03.743Z,8.19
2023-01-09T11:21:35.856Z,8.09
2023-01-09T11:24:29.492Z,8.28
2023-01-09T11:27:23.603Z,8.69
2023-01-09T11:30:14.119Z,8.48
2023-01-09T11:32:42.176Z,8.25
2023-01-09T11:35:18.780Z,8.33
2023-01-09T11:37:48.339Z,8.30
2023-01-09T11:40:22.759Z,8.26
2023-01-09T11:43:06.053Z,8.26
2023-01-09T11:45:36.798Z,8.46
2023-01-09T11:48:18.511Z,8.52
2023-01-09T11:50:56.005Z,8.62
2023-01-09T11:53:24.532Z,8.46
2023-01-09T11:56:00.929Z,8.62
2023-01-09T11:58:33.276Z,8.36
2023-01-09T12:01:13.420Z,8.36
2023-01-09T12:04:00.370Z,8.78
2023-01-09T12:06:35.299Z,8.59
2023-01-09T12:09:07.528Z,8.51
2023-01-09T12:11:44.827Z,8.54
2023-01-09T12:14:33.203Z,8.68
2023-01-09T12:17:36.221Z,8.86
2023-01-09T12:20:22.155Z,8.67
2023-01-09T12:22:57.851Z,8.58
2023-01-09T12:25:39.603Z,8.45
2023-01-09T12:28:26.836Z,8.37
2023-01-09T12:31:04.210Z,8.26
2023-01-09T12:33:41.591Z,8.10
2023-01-09T12:36:23.235Z,7.97
2023-01-09T12:38:56.054Z,7.93
2023-01-09T12:41:54.598Z,7.87
2023-01-09T12:44:41.018Z,7.84
2023-01-09T12:47:25.979Z,7.76
2023-01-09T12:50:03.010Z,7.81
2023-01-09T12:52:36.007Z,7.81
2023-01-09T12:55:14.052Z,8.64
2023-01-09T12:57:44.989Z,8.79
2023-01-09T13:00:19.706Z,9.16
2023-01-09T13:03:03.673Z,8.98
2023-01-09T13:05:38.237Z,9.33
2023-01-09T13:08:09.411Z,9.55
2023-01-09T13:10:42.110Z,9.17
2023-01-09T13:13:17.896Z,9.56
2023-01-09T13:15:51.940Z,9.41
2023-01-09T13:18:23.939Z,9.04
2023-01-09T13:20:53.859Z,9.18
2023-01-09T13:23:29.276Z,9.48
2023-01-09T13:26:00.927Z,9.54
2023-01-09T13:28:33.391Z,9.48
2023-01-09T13:31:27.776Z,9.37
2023-01-09T13:33:58.958Z,9.39
2023-01-09T13:36:29.375Z,9.77
2023-01-09T13:38:58.910Z,9.38
2023-01-09T13:41:45.879Z,8.98
2023-01-09T13:44:28.418Z,8.87
2023-01-09T13:46:59.371Z,8.50
2023-01-09T13:49:31.872Z,8.71
2023-01-09T13:52:02.639Z,8.43
2023-01-09T13:55:07.696Z,8.24
2023-01-09T13:57:36.560Z,8.17
2023-01-09T14:00:44.590Z,8.13
2023-01-09T14:03:22.572Z,8.52
2023-01-09T14:06:12.933Z,8.40
2023-01-09T14:08:42.732Z,8.45
2023-01-09T14:11:18.450Z,8.70
2023-01-09T14:13:47.933Z,8.64
2023-01-09T14:16:23.619Z,8.19
2023-01-09T14:18:54.983Z,8.45
2023-01-09T14:21:22.620Z,8.27
2023-01-09T14:23:59.226Z,8.23
2023-01-09T14:26:44.474Z,8.17
2023-01-09T14:29:44.651Z,8.36
2023-01-09T14:32:43.831Z,8.16
2023-01-09T14:35:26.859Z,7.98
2023-01-09T14:38:05.785Z,7.98
2023-01-09T14:40:35.358Z,8.02
2023-01-09T14:43:17.915Z,8.45
2023-01-09T14:45:50.002Z,8.25
2023-01-09T14:48:18.107Z,8.38
2023-01-09T14:50:55.070Z,8.23
2023-01-09T14:53:25.489Z,8.14
2023-01-09T14:55:57.970Z,8.14
2023-01-09T14:58:28.272Z,8.01
2023-01-09T15:01:01.386Z,8.09
2023-01-09T15:03:32.922Z,8.16
2023-01-09T15:06:02.408Z,8.00
2023-01-09T15:08:30.708Z,8.01
2023-01-09T15:11:00.197Z,7.90
2023-01-09T15:13:32.950Z,7.74
2023-01-09T15:16:01.744Z,7.60
2023-01-09T15:18:32.872Z,7.79
2023-01-09T15:21:03.835Z,7.56
2023-01-09T15:23:32.346Z,7.56
2023-01-09T15:26:14.256Z,7.48
2023-01-09T15:28:43.953Z,7.50
2023-01-09T15:31:16.267Z,7.32
2023-01-09T15:33:45.933Z,7.37
2023-01-09T15:36:19.059Z,7.37
2023-01-09T15:38:47.666Z,7.26
2023-01-09T15:41:35.086Z,7.29
2023-01-09T15:44:04.839Z,7.27
2023-01-09T15:46:32.904Z,7.23
2023-01-09T15:49:01.455Z,7.25
2023-01-09T15:51:33.283Z,7.18
2023-01-09T15:54:01.153Z,7.09
2023-01-09T15:56:30.717Z,7.09
2023-01-09T15:58:59.678Z,7.09
2023-01-09T16:01:30.853Z,7.04
2023-01-09T16:04:07.543Z,7.08
2023-01-09T16:06:39.331Z,7.08
2023-01-09T16:09:17.149Z,6.97
2023-01-09T16:11:48.248Z,6.90
2023-01-09T16:14:21.075Z,6.98
2023-01-09T16:16:51.683Z,6.92
2023-01-09T16:19:33.961Z,6.96
2023-01-09T16:22:04.930Z,6.99
2023-01-09T16:24:40.849Z,7.15
2023-01-09T16:27:23.810Z,7.04
2023-01-09T16:29:57.615Z,6.97
2023-01-09T16:32:28.246Z,7.02
2023-01-09T16:34:57.324Z,6.98
2023-01-09T16:37:27.150Z,6.92
2023-01-09T16:40:36.564Z,6.94
2023-01-09T16:43:08.458Z,6.87
2023-01-09T16:45:38.272Z,6.87
2023-01-09T16:48:13.611Z,6.83
2023-01-09T16:50:41.721Z,6.79
2023-01-09T16:53:15.905Z,6.82
2023-01-09T16:55:43.645Z,6.68
2023-01-09T16:58:16.408Z,6.71
2023-01-09T17:00:45.408Z,6.54
2023-01-09T17:03:13.451Z,6.48
2023-01-09T17:05:41.067Z,6.44
2023-01-09T17:08:20.773Z,6.36
2023-01-09T17:10:48.414Z,6.44
2023-01-09T17:13:16.037Z,6.45
2023-01-09T17:15:44.318Z,6.37
2023-01-09T17:18:16.120Z,6.36
2023-01-09T17:20:45.782Z,6.31
2023-01-09T17:23:13.641Z,6.23
2023-01-09T17:26:01.803Z,6.25
2023-01-09T17:28:33.772Z,6.24
2023-01-09T17:31:02.060Z,6.24
2023-01-09T17:33:29.645Z,6.18
2023-01-09T17:35:57.729Z,6.14
2023-01-09T17:38:25.531Z,6.15
2023-01-09T17:40:55.660Z,6.21
2023-01-09T17:43:23.386Z,6.13
2023-01-09T17:45:51.492Z,6.16
2023-01-09T17:48:21.483Z,6.19
2023-01-09T17:50:50.057Z,6.22
2023-01-09T17:53:20.512Z,6.22
2023-01-09T17:55:48.175Z,6.21
2023-01-09T17:58:28.983Z,6.17
2023-01-09T18:00:57.226Z,6.31
2023-01-09T18:03:30.873Z,6.28
2023-01-09T18:05:58.641Z,6.31
2023-01-09T18:08:26.266Z,6.20
2023-01-09T18:10:53.900Z,6.22
2023-01-09T18:13:21.581Z,6.32
2023-01-09T18:15:50.572Z,6.35
2023-01-09T18:18:19.956Z,6.25
2023-01-09T18:20:47.663Z,6.30
2023-01-09T18:23:16.355Z,6.21
2023-01-09T18:25:44.519Z,6.11
2023-01-09T18:28:15.061Z,6.07
2023-01-09T18:30:45.000Z,6.04
2023-01-09T18:33:14.478Z,6.16
2023-01-09T18:35:42.593Z,6.16
2023-01-09T18:38:10.667Z,6.20
2023-01-09T18:40:38.519Z,6.10
2023-01-09T18:43:07.767Z,6.08
2023-01-09T18:45:35.780Z,6.16
2023-01-09T18:48:03.450Z,6.21
2023-01-09T18:50:32.342Z,6.09
2023-01-09T18:53:00.414Z,6.13
2023-01-09T18:55:28.172Z,6.15
2023-01-09T18:57:56.779Z,6.11
2023-01-09T19:00:25.161Z,6.14
2023-01-09T19:02:52.999Z,6.09
2023-01-09T19:05:20.698Z,6.06
2023-01-09T19:07:49.933Z,6.13
2023-01-09T19:10:18.376Z,6.15
2023-01-09T19:12:46.101Z,6.18
2023-01-09T19:15:13.854Z,6.19
2023-01-09T19:17:41.895Z,6.23
2023-01-09T19:20:10.841Z,6.32
2023-01-09T19:22:38.544Z,6.45
2023-01-09T19:25:08.522Z,6.37
2023-01-09T19:27:36.220Z,6.27
2023-01-09T19:30:03.937Z,6.36
2023-01-09T19:32:31.983Z,6.36
2023-01-09T19:34:59.928Z,6.43
2023-01-09T19:37:27.901Z,6.46
2023-01-09T19:39:55.503Z,6.45
2023-01-09T19:42:24.512Z,6.49
2023-01-09T19:44:52.190Z,6.43
2023-01-09T19:47:19.878Z,6.43
2023-01-09T19:49:47.614Z,6.52
2023-01-09T19:52:15.581Z,6.74
2023-01-09T19:54:43.347Z,6.77
2023-01-09T19:57:11.153Z,6.77
2023-01-09T19:59:40.642Z,6.72
2023-01-09T20:02:10.625Z,6.83
2023-01-09T20:04:38.641Z,6.65
2023-01-09T20:07:06.441Z,6.68
2023-01-09T20:09:34.120Z,6.56
2023-01-09T20:12:03.949Z,6.58
2023-01-09T20:14:31.579Z,6.76
2023-01-09T20:17:04.190Z,6.76
2023-01-09T20:19:32.658Z,6.74
2023-01-09T20:22:01.203Z,6.81
2023-01-09T20:24:29.000Z,6.76
2023-01-09T20:26:56.661Z,6.94
2023-01-09T20:29:24.908Z,6.68
2023-01-09T20:31:52.539Z,6.77
2023-01-09T20:34:21.541Z,6.76
2023-01-09T20:36:49.456Z,6.65
2023-01-09T20:39:17.124Z,6.75
2023-01-09T20:41:44.727Z,6.84
2023-01-09T20:44:14.509Z,6.75
2023-01-09T20:46:44.708Z,6.82
2023-01-09T20:49:13.986Z,6.80
2023-01-09T20:51:46.019Z,6.87
2023-01-09T20:54:14.044Z,6.79
2023-01-09T20:56:41.808Z,6.90
2023-01-09T20:59:13.014Z,6.83
2023-01-09T21:01:41.486Z,6.73
2023-01-09T21:04:09.646Z,6.79
2023-01-09T21:06:37.325Z,6.68
2023-01-09T21:09:06.736Z,6.77
2023-01-09T21:11:34.554Z,6.73
2023-01-09T21:14:02.514Z,6.60
2023-01-09T21:16:30.230Z,6.66
2023-01-09T21:18:57.820Z,6.64
2023-01-09T21:22:17.135Z,6.54
2023-01-09T21:24:49.647Z,6.65
2023-01-09T21:27:17.850Z,6.67
2023-01-09T21:29:46.609Z,6.63
2023-01-09T21:32:14.373Z,6.60
2023-01-09T21:34:42.152Z,6.64
2023-01-09T21:37:09.819Z,6.72
2023-01-09T21:39:37.520Z,6.70
2023-01-09T21:42:24.376Z,6.67
2023-01-09T21:45:24.364Z,6.61
2023-01-09T21:47:52.081Z,6.73
2023-01-09T21:50:19.812Z,6.66
2023-01-09T21:52:47.389Z,6.66
2023-01-09T21:55:15.162Z,6.76
2023-01-09T21:57:44.068Z,6.80
2023-01-09T22:00:12.821Z,6.64
2023-01-09T22:02:41.064Z,6.59
2023-01-09T22:05:09.156Z,6.62
2023-01-09T22:07:37.112Z,6.57
2023-01-09T22:10:05.486Z,6.73
2023-01-09T22:12:33.088Z,6.67
2023-01-09T22:15:02.160Z,6.67
2023-01-09T22:17:30.525Z,6.69
2023-01-09T22:19:58.096Z,6.77
2023-01-09T22:22:25.643Z,6.67
2023-01-09T22:24:53.717Z,6.67
2023-01-09T22:27:21.248Z,6.65
2023-01-09T22:29:49.019Z,6.61
2023-01-09T22:32:18.363Z,6.57
2023-01-09T22:34:45.933Z,6.52
2023-01-09T22:37:13.779Z,6.66
2023-01-09T22:39:41.421Z,6.61
2023-01-09T22:42:09.011Z,6.48
2023-01-09T22:44:36.587Z,6.64
2023-01-09T22:47:04.378Z,6.59
2023-01-09T22:49:41.093Z,6.64
2023-01-09T22:52:19.152Z,6.63
2023-01-09T22:54:50.580Z,6.60
2023-01-09T22:57:18.251Z,6.59
2023-01-09T22:59:45.820Z,6.57
2023-01-09T23:02:13.510Z,6.33
2023-01-09T23:04:42.474Z,6.44
2023-01-09T23:07:10.066Z,6.45
2023-01-09T23:09:37.727Z,6.42
2023-01-09T23:12:06.659Z,6.46
2023-01-09T23:14:36.611Z,6.35
2023-01-09T23:17:04.423Z,6.38
2023-01-09T23:19:32.586Z,6.35
2023-01-09T23:22:02.430Z,6.32
2023-01-09T23:24:30.445Z,6.34
2023-01-09T23:26:58.568Z,6.32
2023-01-09T23:29:26.970Z,6.33
2023-01-09T23:31:54.774Z,6.30
2023-01-09T23:34:24.319Z,6.34
2023-01-09T23:36:53.459Z,6.29
2023-01-09T23:39:22.433Z,6.22
2023-01-09T23:42:07.777Z,6.07
2023-01-09T23:44:36.389Z,6.11
2023-01-09T23:47:04.228Z,6.14
2023-01-09T23:49:31.850Z,6.09
2023-01-09T23:52:01.645Z,6.01
2023-01-09T23:54:30.672Z,6.02
2023-01-09T23:56:58.606Z,6.01
2023-01-09T23:59:26.267Z,5.98
